sensor_id;sensor_type;location;lat;lon;timestamp;P1;durP1;ratioP1;P2;durP2;ratioP2
75358;SDS011;64046;51.978;5.934;2023-09-30T00:02:04;10.48;;;4.00;;
75358;SDS011;64046;51.978;5.934;2023-09-30T00:04:37;9.55;;;4.43;;
75358;SDS011;64046;51.978;5.934;2023-09-30T00:07:10;12.02;;;4.20;;
75358;SDS011;64046;51.978;5.934;2023-09-30T00:09:42;12.32;;;4.45;;
75358;SDS011;64046;51.978;5.934;2023-09-30T00:12:17;15.65;;;5.50;;
75358;SDS011;64046;51.978;5.934;2023-09-30T00:14:47;11.80;;;4.60;;
75358;SDS011;64046;51.978;5.934;2023-09-30T00:17:17;16.05;;;6.00;;
75358;SDS011;64046;51.978;5.934;2023-09-30T00:19:49;12.75;;;5.80;;
75358;SDS011;64046;51.978;5.934;2023-09-30T00:22:19;17.60;;;5.75;;
75358;SDS011;64046;51.978;5.934;2023-09-30T00:24:48;12.93;;;4.97;;
75358;SDS011;64046;51.978;5.934;2023-09-30T00:27:21;11.25;;;5.35;;
75358;SDS011;64046;51.978;5.934;2023-09-30T00:29:54;13.82;;;5.32;;
75358;SDS011;64046;51.978;5.934;2023-09-30T00:32:26;11.65;;;4.82;;
75358;SDS011;64046;51.978;5.934;2023-09-30T00:34:59;12.77;;;5.15;;
75358;SDS011;64046;51.978;5.934;2023-09-30T00:37:35;12.85;;;4.90;;
75358;SDS011;64046;51.978;5.934;2023-09-30T00:40:11;10.50;;;4.88;;
75358;SDS011;64046;51.978;5.934;2023-09-30T00:42:49;8.43;;;4.32;;
75358;SDS011;64046;51.978;5.934;2023-09-30T00:45:20;17.10;;;6.10;;
75358;SDS011;64046;51.978;5.934;2023-09-30T00:47:51;11.10;;;5.03;;
75358;SDS011;64046;51.978;5.934;2023-09-30T00:50:23;12.68;;;4.80;;
75358;SDS011;64046;51.978;5.934;2023-09-30T00:52:59;14.70;;;5.63;;
75358;SDS011;64046;51.978;5.934;2023-09-30T00:55:28;13.90;;;5.43;;
75358;SDS011;64046;51.978;5.934;2023-09-30T00:58:11;12.05;;;5.28;;
75358;SDS011;64046;51.978;5.934;2023-09-30T01:00:44;18.80;;;5.32;;
75358;SDS011;64046;51.978;5.934;2023-09-30T01:03:15;13.00;;;4.57;;
75358;SDS011;64046;51.978;5.934;2023-09-30T01:05:51;13.45;;;5.03;;
75358;SDS011;64046;51.978;5.934;2023-09-30T01:08:22;14.65;;;5.15;;
75358;SDS011;64046;51.978;5.934;2023-09-30T01:10:54;16.10;;;5.35;;
75358;SDS011;64046;51.978;5.934;2023-09-30T01:13:44;14.02;;;5.55;;
75358;SDS011;64046;51.978;5.934;2023-09-30T01:16:15;20.70;;;8.70;;
75358;SDS011;64046;51.978;5.934;2023-09-30T01:18:48;13.75;;;5.55;;
75358;SDS011;64046;51.978;5.934;2023-09-30T01:21:22;9.27;;;4.20;;
75358;SDS011;64046;51.978;5.934;2023-09-30T01:24:04;10.95;;;4.68;;
75358;SDS011;64046;51.978;5.934;2023-09-30T01:26:33;11.20;;;4.43;;
75358;SDS011;64046;51.978;5.934;2023-09-30T01:29:03;14.57;;;4.68;;
75358;SDS011;64046;51.978;5.934;2023-09-30T01:31:37;12.00;;;5.25;;
75358;SDS011;64046;51.978;5.934;2023-09-30T01:34:10;13.52;;;5.28;;
75358;SDS011;64046;51.978;5.934;2023-09-30T01:36:46;12.20;;;4.43;;
75358;SDS011;64046;51.978;5.934;2023-09-30T01:39:21;10.73;;;4.22;;
75358;SDS011;64046;51.978;5.934;2023-09-30T01:41:52;14.80;;;4.93;;
75358;SDS011;64046;51.978;5.934;2023-09-30T01:44:24;11.63;;;5.18;;
75358;SDS011;64046;51.978;5.934;2023-09-30T01:46:53;14.88;;;4.43;;
75358;SDS011;64046;51.978;5.934;2023-09-30T01:49:26;12.85;;;5.00;;
75358;SDS011;64046;51.978;5.934;2023-09-30T01:51:56;12.02;;;4.50;;
75358;SDS011;64046;51.978;5.934;2023-09-30T01:54:31;11.18;;;4.35;;
75358;SDS011;64046;51.978;5.934;2023-09-30T01:57:02;11.90;;;4.78;;
75358;SDS011;64046;51.978;5.934;2023-09-30T01:59:32;9.70;;;4.32;;
75358;SDS011;64046;51.978;5.934;2023-09-30T02:02:02;10.48;;;4.97;;
75358;SDS011;64046;51.978;5.934;2023-09-30T02:04:31;10.60;;;4.57;;
75358;SDS011;64046;51.978;5.934;2023-09-30T02:07:03;11.25;;;4.32;;
75358;SDS011;64046;51.978;5.934;2023-09-30T02:09:35;14.85;;;5.03;;
75358;SDS011;64046;51.978;5.934;2023-09-30T02:12:05;14.85;;;5.38;;
75358;SDS011;64046;51.978;5.934;2023-09-30T02:14:37;9.77;;;4.53;;
75358;SDS011;64046;51.978;5.934;2023-09-30T02:17:09;13.93;;;4.40;;
75358;SDS011;64046;51.978;5.934;2023-09-30T02:19:39;10.55;;;4.57;;
75358;SDS011;64046;51.978;5.934;2023-09-30T02:22:10;12.23;;;4.75;;
75358;SDS011;64046;51.978;5.934;2023-09-30T02:24:44;12.63;;;4.90;;
75358;SDS011;64046;51.978;5.934;2023-09-30T02:27:15;9.70;;;4.82;;
75358;SDS011;64046;51.978;5.934;2023-09-30T02:29:45;12.65;;;4.82;;
75358;SDS011;64046;51.978;5.934;2023-09-30T02:32:16;8.73;;;4.07;;
75358;SDS011;64046;51.978;5.934;2023-09-30T02:34:51;12.15;;;4.70;;
75358;SDS011;64046;51.978;5.934;2023-09-30T02:37:21;9.68;;;4.82;;
75358;SDS011;64046;51.978;5.934;2023-09-30T02:40:01;11.65;;;4.63;;
75358;SDS011;64046;51.978;5.934;2023-09-30T02:42:36;16.52;;;5.18;;
75358;SDS011;64046;51.978;5.934;2023-09-30T02:45:09;14.95;;;5.00;;
75358;SDS011;64046;51.978;5.934;2023-09-30T02:47:40;9.40;;;4.82;;
75358;SDS011;64046;51.978;5.934;2023-09-30T02:50:10;12.02;;;5.40;;
75358;SDS011;64046;51.978;5.934;2023-09-30T02:52:40;12.23;;;4.53;;
75358;SDS011;64046;51.978;5.934;2023-09-30T02:55:16;10.60;;;5.40;;
75358;SDS011;64046;51.978;5.934;2023-09-30T02:57:46;15.30;;;5.57;;
75358;SDS011;64046;51.978;5.934;2023-09-30T03:00:21;11.63;;;5.65;;
75358;SDS011;64046;51.978;5.934;2023-09-30T03:02:53;12.48;;;5.38;;
75358;SDS011;64046;51.978;5.934;2023-09-30T03:05:23;10.27;;;5.63;;
75358;SDS011;64046;51.978;5.934;2023-09-30T03:07:56;12.35;;;5.55;;
75358;SDS011;64046;51.978;5.934;2023-09-30T03:10:28;12.40;;;5.00;;
75358;SDS011;64046;51.978;5.934;2023-09-30T03:12:58;11.15;;;5.60;;
75358;SDS011;64046;51.978;5.934;2023-09-30T03:15:31;12.57;;;5.22;;
75358;SDS011;64046;51.978;5.934;2023-09-30T03:18:04;12.07;;;5.53;;
75358;SDS011;64046;51.978;5.934;2023-09-30T03:20:36;14.68;;;6.13;;
75358;SDS011;64046;51.978;5.934;2023-09-30T03:23:09;17.52;;;5.90;;
75358;SDS011;64046;51.978;5.934;2023-09-30T03:25:42;11.73;;;5.35;;
75358;SDS011;64046;51.978;5.934;2023-09-30T03:28:15;14.15;;;6.53;;
75358;SDS011;64046;51.978;5.934;2023-09-30T03:30:47;17.15;;;6.13;;
75358;SDS011;64046;51.978;5.934;2023-09-30T03:33:16;13.20;;;6.00;;
75358;SDS011;64046;51.978;5.934;2023-09-30T03:35:45;10.35;;;5.40;;
75358;SDS011;64046;51.978;5.934;2023-09-30T03:38:22;14.23;;;6.13;;
75358;SDS011;64046;51.978;5.934;2023-09-30T03:40:56;11.70;;;5.78;;
75358;SDS011;64046;51.978;5.934;2023-09-30T03:43:30;13.88;;;5.85;;
75358;SDS011;64046;51.978;5.934;2023-09-30T03:46:08;16.80;;;5.90;;
75358;SDS011;64046;51.978;5.934;2023-09-30T03:48:38;13.82;;;6.32;;
75358;SDS011;64046;51.978;5.934;2023-09-30T03:51:10;13.50;;;5.72;;
75358;SDS011;64046;51.978;5.934;2023-09-30T03:53:45;14.75;;;6.03;;
75358;SDS011;64046;51.978;5.934;2023-09-30T03:56:17;14.05;;;6.05;;
75358;SDS011;64046;51.978;5.934;2023-09-30T03:58:48;10.02;;;5.38;;
75358;SDS011;64046;51.978;5.934;2023-09-30T04:01:20;10.27;;;5.55;;
75358;SDS011;64046;51.978;5.934;2023-09-30T04:03:55;10.55;;;5.65;;
75358;SDS011;64046;51.978;5.934;2023-09-30T04:06:28;11.15;;;5.93;;
75358;SDS011;64046;51.978;5.934;2023-09-30T04:09:04;11.27;;;6.15;;
75358;SDS011;64046;51.978;5.934;2023-09-30T04:11:40;13.25;;;6.63;;
75358;SDS011;64046;51.978;5.934;2023-09-30T04:14:14;16.33;;;6.22;;
75358;SDS011;64046;51.978;5.934;2023-09-30T04:16:46;15.10;;;7.10;;
75358;SDS011;64046;51.978;5.934;2023-09-30T04:19:17;10.27;;;6.20;;
75358;SDS011;64046;51.978;5.934;2023-09-30T04:21:46;11.75;;;6.20;;
75358;SDS011;64046;51.978;5.934;2023-09-30T04:24:17;13.23;;;6.43;;
75358;SDS011;64046;51.978;5.934;2023-09-30T04:26:52;14.43;;;6.78;;
75358;SDS011;64046;51.978;5.934;2023-09-30T04:29:27;11.98;;;6.40;;
75358;SDS011;64046;51.978;5.934;2023-09-30T04:31:57;15.15;;;6.80;;
75358;SDS011;64046;51.978;5.934;2023-09-30T04:34:27;14.82;;;7.35;;
75358;SDS011;64046;51.978;5.934;2023-09-30T04:36:56;10.63;;;5.32;;
75358;SDS011;64046;51.978;5.934;2023-09-30T04:39:31;11.13;;;6.65;;
75358;SDS011;64046;51.978;5.934;2023-09-30T04:42:05;14.27;;;7.28;;
75358;SDS011;64046;51.978;5.934;2023-09-30T04:44:39;12.85;;;6.35;;
75358;SDS011;64046;51.978;5.934;2023-09-30T04:47:09;11.60;;;6.60;;
75358;SDS011;64046;51.978;5.934;2023-09-30T04:49:39;11.98;;;6.88;;
75358;SDS011;64046;51.978;5.934;2023-09-30T04:52:11;8.82;;;5.65;;
75358;SDS011;64046;51.978;5.934;2023-09-30T04:54:53;13.07;;;6.82;;
75358;SDS011;64046;51.978;5.934;2023-09-30T04:57:26;14.27;;;7.03;;
75358;SDS011;64046;51.978;5.934;2023-09-30T04:59:57;13.00;;;6.43;;
75358;SDS011;64046;51.978;5.934;2023-09-30T05:02:27;12.90;;;6.53;;
75358;SDS011;64046;51.978;5.934;2023-09-30T05:04:59;13.40;;;7.35;;
75358;SDS011;64046;51.978;5.934;2023-09-30T05:07:31;12.23;;;6.32;;
75358;SDS011;64046;51.978;5.934;2023-09-30T05:10:02;16.75;;;7.28;;
75358;SDS011;64046;51.978;5.934;2023-09-30T05:12:41;13.60;;;7.03;;
75358;SDS011;64046;51.978;5.934;2023-09-30T05:15:12;18.02;;;7.70;;
75358;SDS011;64046;51.978;5.934;2023-09-30T05:17:47;15.80;;;7.35;;
75358;SDS011;64046;51.978;5.934;2023-09-30T05:20:20;17.33;;;7.63;;
75358;SDS011;64046;51.978;5.934;2023-09-30T05:22:50;16.05;;;7.13;;
75358;SDS011;64046;51.978;5.934;2023-09-30T05:25:19;16.65;;;8.57;;
75358;SDS011;64046;51.978;5.934;2023-09-30T05:27:56;12.32;;;7.20;;
75358;SDS011;64046;51.978;5.934;2023-09-30T05:30:28;11.60;;;7.18;;
75358;SDS011;64046;51.978;5.934;2023-09-30T05:32:58;15.63;;;8.45;;
75358;SDS011;64046;51.978;5.934;2023-09-30T05:35:30;10.32;;;6.68;;
75358;SDS011;64046;51.978;5.934;2023-09-30T05:37:59;12.98;;;7.40;;
75358;SDS011;64046;51.978;5.934;2023-09-30T05:40:32;11.43;;;7.18;;
75358;SDS011;64046;51.978;5.934;2023-09-30T05:43:06;13.93;;;7.20;;
75358;SDS011;64046;51.978;5.934;2023-09-30T05:45:42;15.50;;;7.97;;
75358;SDS011;64046;51.978;5.934;2023-09-30T05:48:20;19.63;;;7.82;;
75358;SDS011;64046;51.978;5.934;2023-09-30T05:50:50;13.63;;;8.02;;
75358;SDS011;64046;51.978;5.934;2023-09-30T05:53:21;15.70;;;8.02;;
75358;SDS011;64046;51.978;5.934;2023-09-30T05:55:53;14.82;;;8.23;;
75358;SDS011;64046;51.978;5.934;2023-09-30T05:58:31;18.63;;;7.72;;
75358;SDS011;64046;51.978;5.934;2023-09-30T06:01:00;13.60;;;7.50;;
75358;SDS011;64046;51.978;5.934;2023-09-30T06:03:38;15.55;;;8.27;;
75358;SDS011;64046;51.978;5.934;2023-09-30T06:06:12;14.70;;;7.55;;
75358;SDS011;64046;51.978;5.934;2023-09-30T06:08:43;16.50;;;8.27;;
75358;SDS011;64046;51.978;5.934;2023-09-30T06:11:16;14.00;;;7.78;;
75358;SDS011;64046;51.978;5.934;2023-09-30T06:13:58;13.68;;;7.45;;
75358;SDS011;64046;51.978;5.934;2023-09-30T06:16:31;15.05;;;7.93;;
75358;SDS011;64046;51.978;5.934;2023-09-30T06:19:01;16.70;;;7.60;;
75358;SDS011;64046;51.978;5.934;2023-09-30T06:21:38;13.32;;;7.80;;
75358;SDS011;64046;51.978;5.934;2023-09-30T06:24:10;19.13;;;9.15;;
75358;SDS011;64046;51.978;5.934;2023-09-30T06:26:42;15.73;;;7.90;;
75358;SDS011;64046;51.978;5.934;2023-09-30T06:29:17;12.45;;;7.75;;
75358;SDS011;64046;51.978;5.934;2023-09-30T06:31:47;11.20;;;7.40;;
75358;SDS011;64046;51.978;5.934;2023-09-30T06:34:20;15.57;;;7.45;;
75358;SDS011;64046;51.978;5.934;2023-09-30T06:36:52;10.75;;;6.38;;
75358;SDS011;64046;51.978;5.934;2023-09-30T06:39:23;16.50;;;7.53;;
75358;SDS011;64046;51.978;5.934;2023-09-30T06:41:55;11.80;;;7.53;;
75358;SDS011;64046;51.978;5.934;2023-09-30T06:44:30;16.70;;;7.93;;
75358;SDS011;64046;51.978;5.934;2023-09-30T06:47:00;19.70;;;7.88;;
75358;SDS011;64046;51.978;5.934;2023-09-30T06:49:38;14.38;;;7.50;;
75358;SDS011;64046;51.978;5.934;2023-09-30T06:52:12;20.98;;;8.80;;
75358;SDS011;64046;51.978;5.934;2023-09-30T06:54:41;16.40;;;9.35;;
75358;SDS011;64046;51.978;5.934;2023-09-30T06:57:11;18.75;;;8.18;;
75358;SDS011;64046;51.978;5.934;2023-09-30T06:59:43;14.65;;;8.40;;
75358;SDS011;64046;51.978;5.934;2023-09-30T07:02:14;14.82;;;7.47;;
75358;SDS011;64046;51.978;5.934;2023-09-30T07:04:45;16.10;;;7.57;;
75358;SDS011;64046;51.978;5.934;2023-09-30T07:07:14;14.20;;;7.63;;
75358;SDS011;64046;51.978;5.934;2023-09-30T07:09:47;14.95;;;7.35;;
75358;SDS011;64046;51.978;5.934;2023-09-30T07:12:18;13.82;;;7.47;;
75358;SDS011;64046;51.978;5.934;2023-09-30T07:14:55;17.55;;;7.68;;
75358;SDS011;64046;51.978;5.934;2023-09-30T07:17:29;14.30;;;7.95;;
75358;SDS011;64046;51.978;5.934;2023-09-30T07:19:59;19.83;;;8.98;;
75358;SDS011;64046;51.978;5.934;2023-09-30T07:22:30;16.02;;;8.65;;
75358;SDS011;64046;51.978;5.934;2023-09-30T07:25:00;13.82;;;7.20;;
75358;SDS011;64046;51.978;5.934;2023-09-30T07:27:30;15.35;;;7.72;;
75358;SDS011;64046;51.978;5.934;2023-09-30T07:30:03;19.42;;;9.77;;
75358;SDS011;64046;51.978;5.934;2023-09-30T07:32:34;20.88;;;8.07;;
75358;SDS011;64046;51.978;5.934;2023-09-30T07:35:05;14.30;;;7.30;;
75358;SDS011;64046;51.978;5.934;2023-09-30T07:37:36;16.45;;;8.15;;
75358;SDS011;64046;51.978;5.934;2023-09-30T07:40:08;18.63;;;8.48;;
75358;SDS011;64046;51.978;5.934;2023-09-30T07:42:47;19.65;;;8.63;;
75358;SDS011;64046;51.978;5.934;2023-09-30T07:45:23;13.88;;;8.20;;
75358;SDS011;64046;51.978;5.934;2023-09-30T07:47:54;16.55;;;9.10;;
75358;SDS011;64046;51.978;5.934;2023-09-30T07:50:27;16.20;;;8.32;;
75358;SDS011;64046;51.978;5.934;2023-09-30T07:52:58;14.32;;;7.32;;
75358;SDS011;64046;51.978;5.934;2023-09-30T07:55:33;16.98;;;7.80;;
75358;SDS011;64046;51.978;5.934;2023-09-30T07:58:05;17.85;;;8.75;;
75358;SDS011;64046;51.978;5.934;2023-09-30T08:00:37;16.58;;;8.50;;
75358;SDS011;64046;51.978;5.934;2023-09-30T08:03:07;17.30;;;7.70;;
75358;SDS011;64046;51.978;5.934;2023-09-30T08:05:39;17.27;;;9.38;;
75358;SDS011;64046;51.978;5.934;2023-09-30T08:08:12;15.48;;;8.35;;
75358;SDS011;64046;51.978;5.934;2023-09-30T08:10:47;20.85;;;8.23;;
75358;SDS011;64046;51.978;5.934;2023-09-30T08:13:21;23.58;;;10.65;;
75358;SDS011;64046;51.978;5.934;2023-09-30T08:15:58;20.70;;;10.52;;
75358;SDS011;64046;51.978;5.934;2023-09-30T08:18:28;21.60;;;8.52;;
75358;SDS011;64046;51.978;5.934;2023-09-30T08:20:59;21.60;;;10.00;;
75358;SDS011;64046;51.978;5.934;2023-09-30T08:23:31;22.83;;;9.90;;
75358;SDS011;64046;51.978;5.934;2023-09-30T08:26:06;21.77;;;10.13;;
75358;SDS011;64046;51.978;5.934;2023-09-30T08:28:39;18.75;;;9.23;;
75358;SDS011;64046;51.978;5.934;2023-09-30T08:31:20;20.80;;;8.98;;
75358;SDS011;64046;51.978;5.934;2023-09-30T08:33:53;16.88;;;8.60;;
75358;SDS011;64046;51.978;5.934;2023-09-30T08:36:23;17.98;;;8.27;;
75358;SDS011;64046;51.978;5.934;2023-09-30T08:38:58;18.45;;;7.72;;
75358;SDS011;64046;51.978;5.934;2023-09-30T08:41:31;20.40;;;9.65;;
75358;SDS011;64046;51.978;5.934;2023-09-30T08:44:06;17.80;;;9.43;;
75358;SDS011;64046;51.978;5.934;2023-09-30T08:46:41;20.17;;;8.85;;
75358;SDS011;64046;51.978;5.934;2023-09-30T08:49:13;21.65;;;8.85;;
75358;SDS011;64046;51.978;5.934;2023-09-30T08:51:48;23.13;;;9.07;;
75358;SDS011;64046;51.978;5.934;2023-09-30T08:54:20;12.65;;;5.72;;
75358;SDS011;64046;51.978;5.934;2023-09-30T08:56:50;11.88;;;5.25;;
75358;SDS011;64046;51.978;5.934;2023-09-30T08:59:26;10.40;;;6.38;;
75358;SDS011;64046;51.978;5.934;2023-09-30T09:02:02;12.23;;;6.47;;
75358;SDS011;64046;51.978;5.934;2023-09-30T09:04:35;14.52;;;6.32;;
75358;SDS011;64046;51.978;5.934;2023-09-30T09:07:05;19.35;;;6.95;;
75358;SDS011;64046;51.978;5.934;2023-09-30T09:09:35;17.13;;;6.45;;
75358;SDS011;64046;51.978;5.934;2023-09-30T09:12:05;13.38;;;5.95;;
75358;SDS011;64046;51.978;5.934;2023-09-30T09:14:39;16.52;;;7.70;;
75358;SDS011;64046;51.978;5.934;2023-09-30T09:17:12;15.48;;;7.00;;
75358;SDS011;64046;51.978;5.934;2023-09-30T09:19:43;15.57;;;6.32;;
75358;SDS011;64046;51.978;5.934;2023-09-30T09:22:12;16.08;;;7.75;;
75358;SDS011;64046;51.978;5.934;2023-09-30T09:24:42;19.63;;;8.40;;
75358;SDS011;64046;51.978;5.934;2023-09-30T09:27:13;13.55;;;6.80;;
75358;SDS011;64046;51.978;5.934;2023-09-30T09:29:53;20.42;;;8.77;;
75358;SDS011;64046;51.978;5.934;2023-09-30T09:32:29;18.27;;;7.85;;
75358;SDS011;64046;51.978;5.934;2023-09-30T09:35:04;19.27;;;7.50;;
75358;SDS011;64046;51.978;5.934;2023-09-30T09:37:36;14.77;;;7.80;;
75358;SDS011;64046;51.978;5.934;2023-09-30T09:40:08;14.00;;;6.72;;
75358;SDS011;64046;51.978;5.934;2023-09-30T09:42:39;23.83;;;8.73;;
75358;SDS011;64046;51.978;5.934;2023-09-30T09:45:10;18.52;;;8.60;;
75358;SDS011;64046;51.978;5.934;2023-09-30T09:47:44;15.73;;;7.93;;
75358;SDS011;64046;51.978;5.934;2023-09-30T09:50:13;15.38;;;7.57;;
75358;SDS011;64046;51.978;5.934;2023-09-30T09:52:44;17.75;;;7.65;;
75358;SDS011;64046;51.978;5.934;2023-09-30T09:55:22;18.10;;;7.28;;
75358;SDS011;64046;51.978;5.934;2023-09-30T09:57:54;18.67;;;8.57;;
75358;SDS011;64046;51.978;5.934;2023-09-30T10:00:30;13.65;;;7.35;;
75358;SDS011;64046;51.978;5.934;2023-09-30T10:03:03;17.98;;;7.93;;
75358;SDS011;64046;51.978;5.934;2023-09-30T10:05:34;17.17;;;6.72;;
75358;SDS011;64046;51.978;5.934;2023-09-30T10:08:08;16.45;;;7.72;;
75358;SDS011;64046;51.978;5.934;2023-09-30T10:10:44;20.38;;;8.45;;
75358;SDS011;64046;51.978;5.934;2023-09-30T10:19:23;11.90;;;5.47;;
75358;SDS011;64046;51.978;5.934;2023-09-30T10:24:53;11.55;;;5.75;;
75358;SDS011;64046;51.978;5.934;2023-09-30T10:27:32;17.52;;;7.53;;
75358;SDS011;64046;51.978;5.934;2023-09-30T10:30:10;22.13;;;7.45;;
75358;SDS011;64046;51.978;5.934;2023-09-30T10:35:50;19.90;;;8.27;;
75358;SDS011;64046;51.978;5.934;2023-09-30T10:41:07;13.20;;;6.68;;
75358;SDS011;64046;51.978;5.934;2023-09-30T10:43:38;17.50;;;7.20;;
75358;SDS011;64046;51.978;5.934;2023-09-30T10:52:05;12.93;;;4.80;;
75358;SDS011;64046;51.978;5.934;2023-09-30T10:54:36;17.83;;;6.22;;
75358;SDS011;64046;51.978;5.934;2023-09-30T10:57:06;12.57;;;5.38;;
75358;SDS011;64046;51.978;5.934;2023-09-30T10:59:43;18.80;;;5.88;;
75358;SDS011;64046;51.978;5.934;2023-09-30T11:02:18;13.98;;;4.72;;
75358;SDS011;64046;51.978;5.934;2023-09-30T11:04:48;15.35;;;5.10;;
75358;SDS011;64046;51.978;5.934;2023-09-30T11:07:24;10.43;;;3.83;;
75358;SDS011;64046;51.978;5.934;2023-09-30T11:10:02;11.30;;;3.63;;
75358;SDS011;64046;51.978;5.934;2023-09-30T11:12:34;11.13;;;3.88;;
75358;SDS011;64046;51.978;5.934;2023-09-30T11:15:06;11.88;;;3.92;;
75358;SDS011;64046;51.978;5.934;2023-09-30T11:17:41;13.43;;;4.22;;
75358;SDS011;64046;51.978;5.934;2023-09-30T11:20:12;10.18;;;3.22;;
75358;SDS011;64046;51.978;5.934;2023-09-30T11:22:45;14.40;;;3.78;;
75358;SDS011;64046;51.978;5.934;2023-09-30T11:25:15;13.68;;;4.35;;
75358;SDS011;64046;51.978;5.934;2023-09-30T11:27:46;9.77;;;3.70;;
75358;SDS011;64046;51.978;5.934;2023-09-30T11:30:16;7.85;;;3.60;;
75358;SDS011;64046;51.978;5.934;2023-09-30T11:32:46;10.55;;;3.60;;
75358;SDS011;64046;51.978;5.934;2023-09-30T11:35:22;11.05;;;3.95;;
75358;SDS011;64046;51.978;5.934;2023-09-30T11:37:55;10.60;;;3.40;;
75358;SDS011;64046;51.978;5.934;2023-09-30T11:40:27;14.13;;;3.85;;
75358;SDS011;64046;51.978;5.934;2023-09-30T11:43:06;12.50;;;3.15;;
75358;SDS011;64046;51.978;5.934;2023-09-30T11:45:40;12.02;;;3.42;;
75358;SDS011;64046;51.978;5.934;2023-09-30T11:48:18;8.60;;;3.10;;
75358;SDS011;64046;51.978;5.934;2023-09-30T11:50:54;10.32;;;3.95;;
75358;SDS011;64046;51.978;5.934;2023-09-30T11:53:34;9.25;;;3.50;;
75358;SDS011;64046;51.978;5.934;2023-09-30T11:56:06;15.48;;;4.80;;
75358;SDS011;64046;51.978;5.934;2023-09-30T11:58:38;17.17;;;4.38;;
75358;SDS011;64046;51.978;5.934;2023-09-30T12:01:09;10.02;;;3.25;;
75358;SDS011;64046;51.978;5.934;2023-09-30T12:03:40;9.98;;;3.78;;
75358;SDS011;64046;51.978;5.934;2023-09-30T12:06:10;10.20;;;3.70;;
75358;SDS011;64046;51.978;5.934;2023-09-30T12:08:42;11.00;;;2.95;;
75358;SDS011;64046;51.978;5.934;2023-09-30T12:11:13;9.13;;;2.40;;
75358;SDS011;64046;51.978;5.934;2023-09-30T12:13:43;11.88;;;3.30;;
75358;SDS011;64046;51.978;5.934;2023-09-30T12:16:15;14.15;;;4.28;;
75358;SDS011;64046;51.978;5.934;2023-09-30T12:18:50;10.98;;;3.00;;
75358;SDS011;64046;51.978;5.934;2023-09-30T12:21:19;11.88;;;3.50;;
75358;SDS011;64046;51.978;5.934;2023-09-30T12:23:55;9.40;;;3.45;;
75358;SDS011;64046;51.978;5.934;2023-09-30T12:26:29;8.82;;;3.03;;
75358;SDS011;64046;51.978;5.934;2023-09-30T12:28:59;13.48;;;4.53;;
75358;SDS011;64046;51.978;5.934;2023-09-30T12:31:31;12.60;;;4.13;;
75358;SDS011;64046;51.978;5.934;2023-09-30T12:34:04;13.40;;;3.92;;
75358;SDS011;64046;51.978;5.934;2023-09-30T12:36:36;9.55;;;3.42;;
75358;SDS011;64046;51.978;5.934;2023-09-30T12:39:08;14.90;;;3.97;;
75358;SDS011;64046;51.978;5.934;2023-09-30T12:41:43;11.15;;;2.92;;
75358;SDS011;64046;51.978;5.934;2023-09-30T12:44:14;11.85;;;3.30;;
75358;SDS011;64046;51.978;5.934;2023-09-30T12:46:43;10.25;;;3.60;;
75358;SDS011;64046;51.978;5.934;2023-09-30T12:49:13;6.18;;;2.63;;
75358;SDS011;64046;51.978;5.934;2023-09-30T12:51:46;11.95;;;3.13;;
75358;SDS011;64046;51.978;5.934;2023-09-30T12:54:19;6.90;;;3.28;;
75358;SDS011;64046;51.978;5.934;2023-09-30T12:56:50;13.85;;;3.72;;
75358;SDS011;64046;51.978;5.934;2023-09-30T12:59:24;11.40;;;3.33;;
75358;SDS011;64046;51.978;5.934;2023-09-30T13:01:55;7.07;;;3.05;;
75358;SDS011;64046;51.978;5.934;2023-09-30T13:04:28;9.15;;;3.58;;
75358;SDS011;64046;51.978;5.934;2023-09-30T13:07:01;8.07;;;3.45;;
75358;SDS011;64046;51.978;5.934;2023-09-30T13:09:34;17.77;;;3.60;;
75358;SDS011;64046;51.978;5.934;2023-09-30T13:12:06;9.63;;;3.75;;
75358;SDS011;64046;51.978;5.934;2023-09-30T13:14:35;10.25;;;3.53;;
75358;SDS011;64046;51.978;5.934;2023-09-30T13:17:12;14.57;;;5.38;;
75358;SDS011;64046;51.978;5.934;2023-09-30T13:19:47;6.43;;;3.15;;
75358;SDS011;64046;51.978;5.934;2023-09-30T13:22:20;11.00;;;3.80;;
75358;SDS011;64046;51.978;5.934;2023-09-30T13:24:54;11.82;;;4.00;;
75358;SDS011;64046;51.978;5.934;2023-09-30T13:27:25;7.93;;;3.17;;
75358;SDS011;64046;51.978;5.934;2023-09-30T13:29:56;10.40;;;3.47;;
75358;SDS011;64046;51.978;5.934;2023-09-30T13:32:27;11.18;;;3.30;;
75358;SDS011;64046;51.978;5.934;2023-09-30T13:34:59;8.70;;;3.78;;
75358;SDS011;64046;51.978;5.934;2023-09-30T13:37:31;7.35;;;3.08;;
75358;SDS011;64046;51.978;5.934;2023-09-30T13:40:07;7.45;;;2.78;;
75358;SDS011;64046;51.978;5.934;2023-09-30T13:42:44;10.75;;;4.70;;
75358;SDS011;64046;51.978;5.934;2023-09-30T13:45:27;13.98;;;5.63;;
75358;SDS011;64046;51.978;5.934;2023-09-30T13:47:58;14.88;;;5.90;;
75358;SDS011;64046;51.978;5.934;2023-09-30T13:50:29;12.18;;;4.95;;
75358;SDS011;64046;51.978;5.934;2023-09-30T13:52:59;16.42;;;4.38;;
75358;SDS011;64046;51.978;5.934;2023-09-30T13:55:31;9.25;;;3.80;;
75358;SDS011;64046;51.978;5.934;2023-09-30T13:58:01;8.60;;;4.35;;
75358;SDS011;64046;51.978;5.934;2023-09-30T14:00:32;13.13;;;4.78;;
75358;SDS011;64046;51.978;5.934;2023-09-30T14:03:03;13.85;;;4.75;;
75358;SDS011;64046;51.978;5.934;2023-09-30T14:05:38;9.65;;;4.03;;
75358;SDS011;64046;51.978;5.934;2023-09-30T14:08:11;11.60;;;4.35;;
75358;SDS011;64046;51.978;5.934;2023-09-30T14:10:45;12.25;;;5.15;;
75358;SDS011;64046;51.978;5.934;2023-09-30T14:13:17;14.15;;;5.00;;
75358;SDS011;64046;51.978;5.934;2023-09-30T14:15:50;10.48;;;4.43;;
75358;SDS011;64046;51.978;5.934;2023-09-30T14:18:22;11.30;;;5.35;;
75358;SDS011;64046;51.978;5.934;2023-09-30T14:20:52;12.48;;;4.82;;
75358;SDS011;64046;51.978;5.934;2023-09-30T14:23:24;10.60;;;3.90;;
75358;SDS011;64046;51.978;5.934;2023-09-30T14:26:00;12.50;;;4.50;;
75358;SDS011;64046;51.978;5.934;2023-09-30T14:28:36;10.85;;;4.47;;
75358;SDS011;64046;51.978;5.934;2023-09-30T14:31:11;12.80;;;5.32;;
75358;SDS011;64046;51.978;5.934;2023-09-30T14:33:41;14.57;;;6.38;;
75358;SDS011;64046;51.978;5.934;2023-09-30T14:36:13;13.75;;;5.10;;
75358;SDS011;64046;51.978;5.934;2023-09-30T14:38:45;12.95;;;4.78;;
75358;SDS011;64046;51.978;5.934;2023-09-30T14:41:19;11.10;;;4.95;;
75358;SDS011;64046;51.978;5.934;2023-09-30T14:43:49;14.82;;;5.43;;
75358;SDS011;64046;51.978;5.934;2023-09-30T14:46:19;12.95;;;5.22;;
75358;SDS011;64046;51.978;5.934;2023-09-30T14:48:50;11.68;;;4.95;;
75358;SDS011;64046;51.978;5.934;2023-09-30T14:51:25;17.40;;;5.30;;
75358;SDS011;64046;51.978;5.934;2023-09-30T14:53:54;13.18;;;5.85;;
75358;SDS011;64046;51.978;5.934;2023-09-30T14:56:27;10.35;;;5.03;;
75358;SDS011;64046;51.978;5.934;2023-09-30T14:58:57;13.18;;;4.90;;
75358;SDS011;64046;51.978;5.934;2023-09-30T15:01:26;15.25;;;5.88;;
75358;SDS011;64046;51.978;5.934;2023-09-30T15:03:56;17.42;;;5.43;;
75358;SDS011;64046;51.978;5.934;2023-09-30T15:06:25;12.80;;;5.15;;
75358;SDS011;64046;51.978;5.934;2023-09-30T15:08:59;8.57;;;3.92;;
75358;SDS011;64046;51.978;5.934;2023-09-30T15:11:33;12.95;;;4.75;;
75358;SDS011;64046;51.978;5.934;2023-09-30T15:14:05;10.50;;;4.13;;
75358;SDS011;64046;51.978;5.934;2023-09-30T15:16:37;11.68;;;4.45;;
75358;SDS011;64046;51.978;5.934;2023-09-30T15:19:09;9.90;;;3.97;;
75358;SDS011;64046;51.978;5.934;2023-09-30T15:21:38;14.85;;;5.72;;
75358;SDS011;64046;51.978;5.934;2023-09-30T15:24:08;11.60;;;4.68;;
75358;SDS011;64046;51.978;5.934;2023-09-30T15:26:40;10.73;;;5.07;;
75358;SDS011;64046;51.978;5.934;2023-09-30T15:29:11;12.57;;;4.53;;